sensor_id;sensor_type;location;lat;lon;timestamp;P1;durP1;ratioP1;P2;durP2;ratioP2
11039;SDS011;5573;49.592;8.662;2022-11-20T00:01:40;114.27;;;107.83;;
11039;SDS011;5573;49.592;8.662;2022-11-20T00:04:28;121.90;;;115.03;;
11039;SDS011;5573;49.592;8.662;2022-11-20T00:07:16;115.83;;;109.47;;
11039;SDS011;5573;49.592;8.662;2022-11-20T00:10:04;116.20;;;109.70;;
11039;SDS011;5573;49.592;8.662;2022-11-20T00:12:53;127.07;;;119.70;;
11039;SDS011;5573;49.592;8.662;2022-11-20T00:15:40;121.47;;;114.67;;
11039;SDS011;5573;49.592;8.662;2022-11-20T00:18:30;112.47;;;106.13;;
11039;SDS011;5573;49.592;8.662;2022-11-20T00:21:20;117.13;;;110.50;;
11039;SDS011;5573;49.592;8.662;2022-11-20T00:24:09;113.23;;;106.97;;
11039;SDS011;5573;49.592;8.662;2022-11-20T00:26:57;111.50;;;105.43;;
11039;SDS011;5573;49.592;8.662;2022-11-20T00:29:45;113.90;;;107.57;;
11039;SDS011;5573;49.592;8.662;2022-11-20T00:32:33;113.83;;;107.30;;
11039;SDS011;5573;49.592;8.662;2022-11-20T00:35:22;132.93;;;125.30;;
11039;SDS011;5573;49.592;8.662;2022-11-20T00:38:10;116.30;;;109.77;;
11039;SDS011;5573;49.592;8.662;2022-11-20T00:40:59;116.87;;;110.40;;
11039;SDS011;5573;49.592;8.662;2022-11-20T00:43:48;109.20;;;103.17;;
11039;SDS011;5573;49.592;8.662;2022-11-20T00:46:37;111.60;;;105.23;;
11039;SDS011;5573;49.592;8.662;2022-11-20T00:49:24;110.33;;;104.07;;
11039;SDS011;5573;49.592;8.662;2022-11-20T00:52:14;105.40;;;99.53;;
11039;SDS011;5573;49.592;8.662;2022-11-20T00:55:02;111.73;;;105.63;;
11039;SDS011;5573;49.592;8.662;2022-11-20T00:57:50;106.57;;;100.70;;
11039;SDS011;5573;49.592;8.662;2022-11-20T01:00:38;114.80;;;108.37;;
11039;SDS011;5573;49.592;8.662;2022-11-20T01:03:26;120.10;;;113.50;;
11039;SDS011;5573;49.592;8.662;2022-11-20T01:06:15;120.00;;;113.17;;
11039;SDS011;5573;49.592;8.662;2022-11-20T01:09:06;123.30;;;116.20;;
11039;SDS011;5573;49.592;8.662;2022-11-20T01:11:57;110.17;;;103.83;;
11039;SDS011;5573;49.592;8.662;2022-11-20T01:14:46;119.13;;;112.50;;
11039;SDS011;5573;49.592;8.662;2022-11-20T01:17:34;107.83;;;101.80;;
11039;SDS011;5573;49.592;8.662;2022-11-20T01:20:22;124.43;;;117.23;;
11039;SDS011;5573;49.592;8.662;2022-11-20T01:23:10;125.37;;;118.23;;
11039;SDS011;5573;49.592;8.662;2022-11-20T01:26:00;127.37;;;120.17;;
11039;SDS011;5573;49.592;8.662;2022-11-20T01:28:50;121.53;;;114.77;;
11039;SDS011;5573;49.592;8.662;2022-11-20T01:31:38;116.03;;;109.60;;
11039;SDS011;5573;49.592;8.662;2022-11-20T01:34:27;112.07;;;105.73;;
11039;SDS011;5573;49.592;8.662;2022-11-20T01:37:14;113.60;;;107.33;;
11039;SDS011;5573;49.592;8.662;2022-11-20T01:40:03;118.53;;;111.93;;
11039;SDS011;5573;49.592;8.662;2022-11-20T01:42:55;108.63;;;102.57;;
11039;SDS011;5573;49.592;8.662;2022-11-20T01:46:13;116.83;;;109.93;;
11039;SDS011;5573;49.592;8.662;2022-11-20T01:49:03;110.57;;;104.60;;
11039;SDS011;5573;49.592;8.662;2022-11-20T01:51:56;114.40;;;107.90;;
11039;SDS011;5573;49.592;8.662;2022-11-20T01:54:48;114.67;;;108.20;;
11039;SDS011;5573;49.592;8.662;2022-11-20T01:57:40;118.80;;;112.17;;
11039;SDS011;5573;49.592;8.662;2022-11-20T02:00:30;123.53;;;116.70;;
11039;SDS011;5573;49.592;8.662;2022-11-20T02:03:19;110.30;;;104.13;;
11039;SDS011;5573;49.592;8.662;2022-11-20T02:06:10;122.93;;;116.20;;
11039;SDS011;5573;49.592;8.662;2022-11-20T02:09:02;115.97;;;109.57;;
11039;SDS011;5573;49.592;8.662;2022-11-20T02:11:50;116.53;;;110.13;;
11039;SDS011;5573;49.592;8.662;2022-11-20T02:14:38;116.13;;;109.57;;
11039;SDS011;5573;49.592;8.662;2022-11-20T02:17:27;118.57;;;112.03;;
11039;SDS011;5573;49.592;8.662;2022-11-20T02:20:15;118.40;;;111.90;;
11039;SDS011;5573;49.592;8.662;2022-11-20T02:23:05;133.37;;;125.97;;
11039;SDS011;5573;49.592;8.662;2022-11-20T02:26:01;128.10;;;120.67;;
11039;SDS011;5573;49.592;8.662;2022-11-20T02:28:52;124.53;;;117.67;;
11039;SDS011;5573;49.592;8.662;2022-11-20T02:31:40;124.77;;;117.80;;
11039;SDS011;5573;49.592;8.662;2022-11-20T02:34:30;121.60;;;114.60;;
11039;SDS011;5573;49.592;8.662;2022-11-20T02:37:18;113.30;;;107.00;;
11039;SDS011;5573;49.592;8.662;2022-11-20T02:40:07;112.97;;;106.63;;
11039;SDS011;5573;49.592;8.662;2022-11-20T02:42:58;118.33;;;111.80;;
11039;SDS011;5573;49.592;8.662;2022-11-20T02:45:46;127.00;;;120.00;;
11039;SDS011;5573;49.592;8.662;2022-11-20T02:48:33;125.97;;;118.80;;
11039;SDS011;5573;49.592;8.662;2022-11-20T02:51:22;120.00;;;113.37;;
11039;SDS011;5573;49.592;8.662;2022-11-20T02:54:10;132.03;;;124.73;;
11039;SDS011;5573;49.592;8.662;2022-11-20T02:56:58;127.37;;;120.30;;
11039;SDS011;5573;49.592;8.662;2022-11-20T02:59:47;131.10;;;123.63;;
11039;SDS011;5573;49.592;8.662;2022-11-20T03:02:35;129.57;;;122.43;;
11039;SDS011;5573;49.592;8.662;2022-11-20T03:05:23;120.30;;;113.57;;
11039;SDS011;5573;49.592;8.662;2022-11-20T03:08:11;123.33;;;116.53;;
11039;SDS011;5573;49.592;8.662;2022-11-20T03:11:01;127.23;;;120.03;;
11039;SDS011;5573;49.592;8.662;2022-11-20T03:13:50;120.97;;;114.30;;
11039;SDS011;5573;49.592;8.662;2022-11-20T03:16:40;122.63;;;115.83;;
11039;SDS011;5573;49.592;8.662;2022-11-20T03:19:28;118.83;;;112.03;;
11039;SDS011;5573;49.592;8.662;2022-11-20T03:22:16;117.93;;;111.37;;
11039;SDS011;5573;49.592;8.662;2022-11-20T03:25:04;122.93;;;115.97;;
11039;SDS011;5573;49.592;8.662;2022-11-20T03:27:53;121.80;;;115.10;;
11039;SDS011;5573;49.592;8.662;2022-11-20T03:30:41;118.07;;;111.53;;
11039;SDS011;5573;49.592;8.662;2022-11-20T03:33:30;118.53;;;111.93;;
11039;SDS011;5573;49.592;8.662;2022-11-20T03:36:19;129.93;;;122.73;;
11039;SDS011;5573;49.592;8.662;2022-11-20T03:39:08;126.47;;;119.37;;
11039;SDS011;5573;49.592;8.662;2022-11-20T03:41:56;124.77;;;117.90;;
11039;SDS011;5573;49.592;8.662;2022-11-20T03:44:44;123.67;;;116.70;;
11039;SDS011;5573;49.592;8.662;2022-11-20T03:47:32;127.17;;;120.17;;
11039;SDS011;5573;49.592;8.662;2022-11-20T03:50:21;120.53;;;113.73;;
11039;SDS011;5573;49.592;8.662;2022-11-20T03:53:09;127.33;;;120.27;;
11039;SDS011;5573;49.592;8.662;2022-11-20T03:55:57;126.00;;;118.97;;
11039;SDS011;5573;49.592;8.662;2022-11-20T03:58:45;118.77;;;112.13;;
11039;SDS011;5573;49.592;8.662;2022-11-20T04:01:34;137.07;;;129.30;;
11039;SDS011;5573;49.592;8.662;2022-11-20T04:04:24;128.50;;;121.27;;
11039;SDS011;5573;49.592;8.662;2022-11-20T04:07:13;126.47;;;119.30;;
11039;SDS011;5573;49.592;8.662;2022-11-20T04:10:02;133.43;;;125.90;;
11039;SDS011;5573;49.592;8.662;2022-11-20T04:12:50;130.97;;;123.60;;
11039;SDS011;5573;49.592;8.662;2022-11-20T04:15:38;126.87;;;119.80;;
11039;SDS011;5573;49.592;8.662;2022-11-20T04:18:26;125.23;;;118.13;;
11039;SDS011;5573;49.592;8.662;2022-11-20T04:21:14;122.90;;;116.13;;
11039;SDS011;5573;49.592;8.662;2022-11-20T04:24:03;124.90;;;117.70;;
11039;SDS011;5573;49.592;8.662;2022-11-20T04:26:51;126.20;;;119.23;;
11039;SDS011;5573;49.592;8.662;2022-11-20T04:29:39;125.07;;;118.03;;
11039;SDS011;5573;49.592;8.662;2022-11-20T04:32:27;122.07;;;115.20;;
11039;SDS011;5573;49.592;8.662;2022-11-20T04:35:15;128.53;;;121.43;;
11039;SDS011;5573;49.592;8.662;2022-11-20T04:38:03;126.97;;;119.97;;
11039;SDS011;5573;49.592;8.662;2022-11-20T04:40:56;126.73;;;119.77;;
11039;SDS011;5573;49.592;8.662;2022-11-20T04:43:46;114.97;;;108.33;;
11039;SDS011;5573;49.592;8.662;2022-11-20T04:46:36;115.40;;;108.73;;
11039;SDS011;5573;49.592;8.662;2022-11-20T04:49:26;113.17;;;106.77;;
11039;SDS011;5573;49.592;8.662;2022-11-20T04:52:14;122.23;;;115.37;;
11039;SDS011;5573;49.592;8.662;2022-11-20T04:55:02;121.43;;;114.63;;
11039;SDS011;5573;49.592;8.662;2022-11-20T04:57:52;128.17;;;120.70;;
11039;SDS011;5573;49.592;8.662;2022-11-20T05:00:39;129.70;;;122.40;;
11039;SDS011;5573;49.592;8.662;2022-11-20T05:03:28;127.50;;;120.27;;
11039;SDS011;5573;49.592;8.662;2022-11-20T05:06:16;120.70;;;113.97;;
11039;SDS011;5573;49.592;8.662;2022-11-20T05:09:05;122.53;;;115.73;;
11039;SDS011;5573;49.592;8.662;2022-11-20T05:11:53;132.67;;;125.37;;
11039;SDS011;5573;49.592;8.662;2022-11-20T05:14:43;126.90;;;119.87;;
11039;SDS011;5573;49.592;8.662;2022-11-20T05:17:31;120.63;;;113.80;;
11039;SDS011;5573;49.592;8.662;2022-11-20T05:20:19;120.70;;;114.07;;
11039;SDS011;5573;49.592;8.662;2022-11-20T05:23:07;117.33;;;110.83;;
11039;SDS011;5573;49.592;8.662;2022-11-20T05:25:55;127.57;;;120.50;;
11039;SDS011;5573;49.592;8.662;2022-11-20T05:28:45;129.93;;;122.60;;
11039;SDS011;5573;49.592;8.662;2022-11-20T05:31:34;120.73;;;113.90;;
11039;SDS011;5573;49.592;8.662;2022-11-20T05:34:23;137.57;;;129.83;;
11039;SDS011;5573;49.592;8.662;2022-11-20T05:37:11;140.17;;;132.20;;
11039;SDS011;5573;49.592;8.662;2022-11-20T05:39:59;130.77;;;123.17;;
11039;SDS011;5573;49.592;8.662;2022-11-20T05:42:47;145.30;;;137.00;;
11039;SDS011;5573;49.592;8.662;2022-11-20T05:45:35;134.40;;;126.73;;
11039;SDS011;5573;49.592;8.662;2022-11-20T05:48:24;134.97;;;127.43;;
11039;SDS011;5573;49.592;8.662;2022-11-20T05:51:14;147.97;;;139.40;;
11039;SDS011;5573;49.592;8.662;2022-11-20T05:54:03;134.37;;;126.77;;
11039;SDS011;5573;49.592;8.662;2022-11-20T05:56:51;139.43;;;131.57;;
11039;SDS011;5573;49.592;8.662;2022-11-20T05:59:39;137.60;;;129.83;;
11039;SDS011;5573;49.592;8.662;2022-11-20T06:02:27;140.23;;;132.20;;
11039;SDS011;5573;49.592;8.662;2022-11-20T06:05:17;140.70;;;133.00;;
11039;SDS011;5573;49.592;8.662;2022-11-20T06:08:05;126.90;;;119.57;;
11039;SDS011;5573;49.592;8.662;2022-11-20T06:10:53;140.53;;;132.60;;
11039;SDS011;5573;49.592;8.662;2022-11-20T06:13:41;138.63;;;130.73;;
11039;SDS011;5573;49.592;8.662;2022-11-20T06:16:29;141.03;;;132.90;;
11039;SDS011;5573;49.592;8.662;2022-11-20T06:19:17;132.40;;;124.90;;
11039;SDS011;5573;49.592;8.662;2022-11-20T06:22:07;130.73;;;123.20;;
11039;SDS011;5573;49.592;8.662;2022-11-20T06:24:55;142.53;;;134.37;;
11039;SDS011;5573;49.592;8.662;2022-11-20T06:27:43;131.80;;;124.30;;
11039;SDS011;5573;49.592;8.662;2022-11-20T06:30:31;147.27;;;138.70;;
11039;SDS011;5573;49.592;8.662;2022-11-20T06:33:19;148.17;;;139.83;;
11039;SDS011;5573;49.592;8.662;2022-11-20T06:36:07;142.37;;;134.30;;
11039;SDS011;5573;49.592;8.662;2022-11-20T06:38:58;128.63;;;121.27;;
11039;SDS011;5573;49.592;8.662;2022-11-20T06:41:46;146.13;;;137.90;;
11039;SDS011;5573;49.592;8.662;2022-11-20T06:44:34;145.57;;;137.17;;
11039;SDS011;5573;49.592;8.662;2022-11-20T06:47:22;152.50;;;143.47;;
11039;SDS011;5573;49.592;8.662;2022-11-20T06:50:10;144.40;;;136.33;;
11039;SDS011;5573;49.592;8.662;2022-11-20T06:53:00;145.97;;;137.53;;
11039;SDS011;5573;49.592;8.662;2022-11-20T06:55:50;131.07;;;123.73;;
11039;SDS011;5573;49.592;8.662;2022-11-20T06:58:39;132.47;;;124.90;;
11039;SDS011;5573;49.592;8.662;2022-11-20T07:01:26;134.97;;;127.30;;
11039;SDS011;5573;49.592;8.662;2022-11-20T07:03:54;144.63;;;136.50;;
11039;SDS011;5573;49.592;8.662;2022-11-20T07:06:22;142.73;;;134.57;;
11039;SDS011;5573;49.592;8.662;2022-11-20T07:08:50;149.47;;;140.73;;
11039;SDS011;5573;49.592;8.662;2022-11-20T07:11:19;151.00;;;142.23;;
11039;SDS011;5573;49.592;8.662;2022-11-20T07:13:47;138.93;;;130.93;;
11039;SDS011;5573;49.592;8.662;2022-11-20T07:16:15;144.03;;;135.73;;
11039;SDS011;5573;49.592;8.662;2022-11-20T07:18:43;150.57;;;141.67;;
11039;SDS011;5573;49.592;8.662;2022-11-20T07:21:15;158.07;;;148.70;;
11039;SDS011;5573;49.592;8.662;2022-11-20T07:23:43;148.53;;;140.10;;
11039;SDS011;5573;49.592;8.662;2022-11-20T07:26:11;146.50;;;138.30;;
11039;SDS011;5573;49.592;8.662;2022-11-20T07:28:40;153.90;;;144.70;;
11039;SDS011;5573;49.592;8.662;2022-11-20T07:31:11;140.87;;;132.67;;
11039;SDS011;5573;49.592;8.662;2022-11-20T07:33:44;149.67;;;140.93;;
11039;SDS011;5573;49.592;8.662;2022-11-20T07:36:12;154.63;;;145.80;;
11039;SDS011;5573;49.592;8.662;2022-11-20T07:38:40;154.57;;;145.67;;
11039;SDS011;5573;49.592;8.662;2022-11-20T07:41:07;159.93;;;150.43;;
11039;SDS011;5573;49.592;8.662;2022-11-20T07:43:35;150.73;;;142.07;;
11039;SDS011;5573;49.592;8.662;2022-11-20T07:46:08;156.77;;;147.63;;
11039;SDS011;5573;49.592;8.662;2022-11-20T07:48:36;151.13;;;142.27;;
11039;SDS011;5573;49.592;8.662;2022-11-20T07:51:03;150.17;;;141.53;;
11039;SDS011;5573;49.592;8.662;2022-11-20T07:53:31;156.13;;;146.87;;
11039;SDS011;5573;49.592;8.662;2022-11-20T07:55:59;174.43;;;164.23;;
11039;SDS011;5573;49.592;8.662;2022-11-20T07:58:28;160.70;;;151.60;;
11039;SDS011;5573;49.592;8.662;2022-11-20T08:01:02;150.57;;;141.77;;
11039;SDS011;5573;49.592;8.662;2022-11-20T08:03:31;149.90;;;141.37;;
11039;SDS011;5573;49.592;8.662;2022-11-20T08:06:00;159.80;;;150.50;;
11039;SDS011;5573;49.592;8.662;2022-11-20T08:08:28;155.57;;;146.23;;
11039;SDS011;5573;49.592;8.662;2022-11-20T08:10:59;157.73;;;148.53;;
11039;SDS011;5573;49.592;8.662;2022-11-20T08:13:41;144.00;;;135.73;;
11039;SDS011;5573;49.592;8.662;2022-11-20T08:16:26;145.57;;;137.13;;
11039;SDS011;5573;49.592;8.662;2022-11-20T08:18:55;154.93;;;146.07;;
11039;SDS011;5573;49.592;8.662;2022-11-20T08:21:23;160.97;;;151.90;;
11039;SDS011;5573;49.592;8.662;2022-11-20T08:23:51;155.50;;;146.57;;
11039;SDS011;5573;49.592;8.662;2022-11-20T08:26:19;157.73;;;148.50;;
11039;SDS011;5573;49.592;8.662;2022-11-20T08:28:48;163.33;;;153.90;;
11039;SDS011;5573;49.592;8.662;2022-11-20T08:31:15;156.73;;;147.47;;
11039;SDS011;5573;49.592;8.662;2022-11-20T08:33:43;169.20;;;159.27;;
11039;SDS011;5573;49.592;8.662;2022-11-20T08:36:12;167.53;;;157.47;;
11039;SDS011;5573;49.592;8.662;2022-11-20T08:38:40;161.13;;;151.83;;
11039;SDS011;5573;49.592;8.662;2022-11-20T08:41:08;154.10;;;144.83;;
11039;SDS011;5573;49.592;8.662;2022-11-20T08:43:52;154.83;;;145.70;;
11039;SDS011;5573;49.592;8.662;2022-11-20T08:46:23;157.83;;;148.80;;
11039;SDS011;5573;49.592;8.662;2022-11-20T08:48:52;167.97;;;158.30;;
11039;SDS011;5573;49.592;8.662;2022-11-20T08:51:21;141.50;;;133.23;;
11039;SDS011;5573;49.592;8.662;2022-11-20T08:53:49;169.07;;;159.23;;
11039;SDS011;5573;49.592;8.662;2022-11-20T08:56:16;170.70;;;160.57;;
11039;SDS011;5573;49.592;8.662;2022-11-20T08:58:44;170.33;;;160.27;;
11039;SDS011;5573;49.592;8.662;2022-11-20T09:01:32;155.13;;;145.83;;
11039;SDS011;5573;49.592;8.662;2022-11-20T09:04:00;154.80;;;145.70;;
11039;SDS011;5573;49.592;8.662;2022-11-20T09:06:29;147.70;;;138.90;;
11039;SDS011;5573;49.592;8.662;2022-11-20T09:08:56;162.07;;;152.60;;
11039;SDS011;5573;49.592;8.662;2022-11-20T09:11:31;156.80;;;147.33;;
11039;SDS011;5573;49.592;8.662;2022-11-20T09:13:59;159.80;;;150.37;;
11039;SDS011;5573;49.592;8.662;2022-11-20T09:16:28;150.40;;;141.43;;
11039;SDS011;5573;49.592;8.662;2022-11-20T09:18:56;163.97;;;154.53;;
11039;SDS011;5573;49.592;8.662;2022-11-20T09:21:45;152.70;;;143.73;;
11039;SDS011;5573;49.592;8.662;2022-11-20T09:24:13;166.43;;;156.53;;
11039;SDS011;5573;49.592;8.662;2022-11-20T09:26:41;156.47;;;147.53;;
11039;SDS011;5573;49.592;8.662;2022-11-20T09:29:08;168.00;;;158.30;;
11039;SDS011;5573;49.592;8.662;2022-11-20T09:31:37;158.57;;;149.23;;
11039;SDS011;5573;49.592;8.662;2022-11-20T09:34:04;163.90;;;154.43;;
11039;SDS011;5573;49.592;8.662;2022-11-20T09:36:32;159.87;;;150.33;;
11039;SDS011;5573;49.592;8.662;2022-11-20T09:39:01;169.00;;;158.80;;
11039;SDS011;5573;49.592;8.662;2022-11-20T09:41:34;161.20;;;152.20;;
11039;SDS011;5573;49.592;8.662;2022-11-20T09:44:16;162.53;;;153.13;;
11039;SDS011;5573;49.592;8.662;2022-11-20T09:46:55;156.97;;;147.93;;
11039;SDS011;5573;49.592;8.662;2022-11-20T09:49:31;153.27;;;143.93;;
11039;SDS011;5573;49.592;8.662;2022-11-20T09:52:10;157.13;;;147.80;;
11039;SDS011;5573;49.592;8.662;2022-11-20T09:54:47;151.23;;;142.47;;
11039;SDS011;5573;49.592;8.662;2022-11-20T09:57:18;163.10;;;153.73;;
11039;SDS011;5573;49.592;8.662;2022-11-20T09:59:51;162.60;;;153.23;;
11039;SDS011;5573;49.592;8.662;2022-11-20T10:02:26;155.67;;;146.77;;
11039;SDS011;5573;49.592;8.662;2022-11-20T10:04:59;163.60;;;154.27;;
11039;SDS011;5573;49.592;8.662;2022-11-20T10:07:32;157.60;;;148.67;;
11039;SDS011;5573;49.592;8.662;2022-11-20T10:10:14;155.17;;;146.13;;
11039;SDS011;5573;49.592;8.662;2022-11-20T10:12:48;154.57;;;145.67;;
11039;SDS011;5573;49.592;8.662;2022-11-20T10:15:29;141.47;;;132.93;;
11039;SDS011;5573;49.592;8.662;2022-11-20T10:18:08;147.93;;;139.23;;
11039;SDS011;5573;49.592;8.662;2022-11-20T10:20:43;143.43;;;135.03;;
11039;SDS011;5573;49.592;8.662;2022-11-20T10:23:23;154.30;;;145.07;;
11039;SDS011;5573;49.592;8.662;2022-11-20T10:26:03;169.00;;;159.30;;
11039;SDS011;5573;49.592;8.662;2022-11-20T10:28:45;148.80;;;139.97;;
11039;SDS011;5573;49.592;8.662;2022-11-20T10:31:27;148.43;;;139.87;;
11039;SDS011;5573;49.592;8.662;2022-11-20T10:33:59;143.37;;;134.53;;
11039;SDS011;5573;49.592;8.662;2022-11-20T10:36:38;162.53;;;153.00;;
11039;SDS011;5573;49.592;8.662;2022-11-20T10:39:14;162.47;;;153.03;;
11039;SDS011;5573;49.592;8.662;2022-11-20T10:41:49;151.23;;;142.53;;
11039;SDS011;5573;49.592;8.662;2022-11-20T10:44:19;155.67;;;146.33;;
11039;SDS011;5573;49.592;8.662;2022-11-20T10:47:03;175.53;;;165.43;;
11039;SDS011;5573;49.592;8.662;2022-11-20T10:49:31;167.63;;;158.20;;
11039;SDS011;5573;49.592;8.662;2022-11-20T10:52:03;175.50;;;165.33;;
11039;SDS011;5573;49.592;8.662;2022-11-20T10:54:39;173.93;;;163.73;;
11039;SDS011;5573;49.592;8.662;2022-11-20T10:57:19;175.23;;;164.93;;
11039;SDS011;5573;49.592;8.662;2022-11-20T11:00:00;173.73;;;163.50;;
11039;SDS011;5573;49.592;8.662;2022-11-20T11:02:32;171.70;;;161.67;;
11039;SDS011;5573;49.592;8.662;2022-11-20T11:07:54;178.67;;;167.90;;
11039;SDS011;5573;49.592;8.662;2022-11-20T11:10:24;179.27;;;168.83;;
11039;SDS011;5573;49.592;8.662;2022-11-20T11:12:59;177.07;;;166.43;;
11039;SDS011;5573;49.592;8.662;2022-11-20T11:15:28;172.73;;;162.47;;
11039;SDS011;5573;49.592;8.662;2022-11-20T11:17:56;182.77;;;172.23;;
11039;SDS011;5573;49.592;8.662;2022-11-20T11:20:25;199.70;;;187.87;;
11039;SDS011;5573;49.592;8.662;2022-11-20T11:22:53;171.70;;;161.53;;
11039;SDS011;5573;49.592;8.662;2022-11-20T11:25:27;157.70;;;148.27;;
11039;SDS011;5573;49.592;8.662;2022-11-20T11:27:57;186.20;;;175.33;;
11039;SDS011;5573;49.592;8.662;2022-11-20T11:30:28;175.73;;;165.57;;
11039;SDS011;5573;49.592;8.662;2022-11-20T11:33:05;172.13;;;162.33;;
11039;SDS011;5573;49.592;8.662;2022-11-20T11:35:38;180.57;;;169.90;;
11039;SDS011;5573;49.592;8.662;2022-11-20T11:38:17;160.20;;;150.83;;
11039;SDS011;5573;49.592;8.662;2022-11-20T11:40:49;167.10;;;157.67;;
11039;SDS011;5573;49.592;8.662;2022-11-20T11:43:17;169.73;;;159.47;;
11039;SDS011;5573;49.592;8.662;2022-11-20T11:46:08;162.80;;;153.40;;
11039;SDS011;5573;49.592;8.662;2022-11-20T11:48:59;167.67;;;157.50;;
11039;SDS011;5573;49.592;8.662;2022-11-20T11:51:29;167.37;;;157.77;;
11039;SDS011;5573;49.592;8.662;2022-11-20T11:54:02;178.53;;;168.23;;
11039;SDS011;5573;49.592;8.662;2022-11-20T11:56:37;183.43;;;172.43;;
11039;SDS011;5573;49.592;8.662;2022-11-20T11:59:06;180.07;;;169.77;;
11039;SDS011;5573;49.592;8.662;2022-11-20T12:01:44;174.57;;;164.37;;
11039;SDS011;5573;49.592;8.662;2022-11-20T12:04:19;182.30;;;171.73;;
11039;SDS011;5573;49.592;8.662;2022-11-20T12:06:51;186.43;;;175.53;;
11039;SDS011;5573;49.592;8.662;2022-11-20T12:09:28;174.20;;;163.73;;
11039;SDS011;5573;49.592;8.662;2022-11-20T12:12:04;173.63;;;163.43;;
11039;SDS011;5573;49.592;8.662;2022-11-20T12:14:36;166.37;;;156.60;;
11039;SDS011;5573;49.592;8.662;2022-11-20T12:17:08;171.43;;;161.53;;
11039;SDS011;5573;49.592;8.662;2022-11-20T12:19:39;186.03;;;175.00;;
11039;SDS011;5573;49.592;8.662;2022-11-20T12:22:10;173.97;;;163.83;;
11039;SDS011;5573;49.592;8.662;2022-11-20T12:24:52;183.00;;;172.20;;
11039;SDS011;5573;49.592;8.662;2022-11-20T12:27:47;177.50;;;167.17;;
11039;SDS011;5573;49.592;8.662;2022-11-20T12:30:23;150.10;;;141.40;;
11039;SDS011;5573;49.592;8.662;2022-11-20T12:32:56;168.77;;;158.80;;
11039;SDS011;5573;49.592;8.662;2022-11-20T12:35:40;163.43;;;153.83;;
11039;SDS011;5573;49.592;8.662;2022-11-20T12:38:41;181.03;;;170.73;;
11039;SDS011;5573;49.592;8.662;2022-11-20T12:41:20;145.17;;;136.60;;
11039;SDS011;5573;49.592;8.662;2022-11-20T12:44:16;147.03;;;138.33;;
11039;SDS011;5573;49.592;8.662;2022-11-20T12:47:14;151.60;;;142.63;;
11039;SDS011;5573;49.592;8.662;2022-11-20T12:49:55;158.00;;;148.97;;
11039;SDS011;5573;49.592;8.662;2022-11-20T12:52:34;160.37;;;151.03;;
11039;SDS011;5573;49.592;8.662;2022-11-20T12:55:13;163.90;;;154.43;;
11039;SDS011;5573;49.592;8.662;2022-11-20T12:57:49;177.47;;;166.90;;
11039;SDS011;5573;49.592;8.662;2022-11-20T13:00:22;184.73;;;173.90;;
11039;SDS011;5573;49.592;8.662;2022-11-20T13:02:57;177.50;;;167.03;;
11039;SDS011;5573;49.592;8.662;2022-11-20T13:05:39;177.50;;;166.97;;
11039;SDS011;5573;49.592;8.662;2022-11-20T13:08:16;182.87;;;172.43;;
11039;SDS011;5573;49.592;8.662;2022-11-20T13:10:49;194.67;;;183.47;;
11039;SDS011;5573;49.592;8.662;2022-11-20T13:13:21;199.43;;;187.87;;
11039;SDS011;5573;49.592;8.662;2022-11-20T13:15:55;208.40;;;196.23;;
11039;SDS011;5573;49.592;8.662;2022-11-20T13:18:30;204.10;;;192.13;;
11039;SDS011;5573;49.592;8.662;2022-11-20T13:21:14;184.60;;;173.97;;
11039;SDS011;5573;49.592;8.662;2022-11-20T13:23:43;192.23;;;181.20;;
11039;SDS011;5573;49.592;8.662;2022-11-20T13:26:15;201.87;;;190.20;;
11039;SDS011;5573;49.592;8.662;2022-11-20T13:28:48;192.17;;;180.90;;
11039;SDS011;5573;49.592;8.662;2022-11-20T13:31:31;200.50;;;188.73;;
11039;SDS011;5573;49.592;8.662;2022-11-20T13:34:02;206.00;;;194.27;;
11039;SDS011;5573;49.592;8.662;2022-11-20T13:36:32;215.60;;;203.00;;
11039;SDS011;5573;49.592;8.662;2022-11-20T13:39:02;207.50;;;195.70;;
11039;SDS011;5573;49.592;8.662;2022-11-20T13:41:31;220.47;;;207.77;;
11039;SDS011;5573;49.592;8.662;2022-11-20T13:44:06;227.27;;;214.20;;
11039;SDS011;5573;49.592;8.662;2022-11-20T13:46:40;228.77;;;215.53;;
11039;SDS011;5573;49.592;8.662;2022-11-20T13:49:16;222.63;;;209.90;;
11039;SDS011;5573;49.592;8.662;2022-11-20T13:51:47;224.33;;;211.53;;
11039;SDS011;5573;49.592;8.662;2022-11-20T13:54:31;215.07;;;202.73;;
11039;SDS011;5573;49.592;8.662;2022-11-20T13:57:27;198.93;;;187.63;;
11039;SDS011;5573;49.592;8.662;2022-11-20T14:00:09;222.00;;;209.03;;
11039;SDS011;5573;49.592;8.662;2022-11-20T14:02:39;238.73;;;225.07;;
11039;SDS011;5573;49.592;8.662;2022-11-20T14:05:13;226.33;;;213.30;;
11039;SDS011;5573;49.592;8.662;2022-11-20T14:07:48;223.33;;;210.50;;
11039;SDS011;5573;49.592;8.662;2022-11-20T14:10:21;234.63;;;221.13;;
11039;SDS011;5573;49.592;8.662;2022-11-20T14:12:57;218.00;;;205.47;;
11039;SDS011;5573;49.592;8.662;2022-11-20T14:15:26;233.83;;;220.60;;
11039;SDS011;5573;49.592;8.662;2022-11-20T14:17:55;218.97;;;206.53;;
11039;SDS011;5573;49.592;8.662;2022-11-20T14:20:23;211.80;;;199.70;;
11039;SDS011;5573;49.592;8.662;2022-11-20T14:22:55;214.33;;;202.27;;
11039;SDS011;5573;49.592;8.662;2022-11-20T14:25:23;219.97;;;207.30;;
11039;SDS011;5573;49.592;8.662;2022-11-20T14:27:54;206.20;;;194.33;;
11039;SDS011;5573;49.592;8.662;2022-11-20T14:30:24;212.33;;;200.17;;
11039;SDS011;5573;49.592;8.662;2022-11-20T14:32:54;207.60;;;196.13;;
11039;SDS011;5573;49.592;8.662;2022-11-20T14:35:25;212.70;;;200.70;;
11039;SDS011;5573;49.592;8.662;2022-11-20T14:37:56;230.37;;;217.30;;
11039;SDS011;5573;49.592;8.662;2022-11-20T14:40:26;205.10;;;193.40;;
11039;SDS011;5573;49.592;8.662;2022-11-20T14:42:56;210.30;;;198.43;;
11039;SDS011;5573;49.592;8.662;2022-11-20T14:45:25;209.63;;;197.93;;
11039;SDS011;5573;49.592;8.662;2022-11-20T14:47:55;204.67;;;193.17;;
11039;SDS011;5573;49.592;8.662;2022-11-20T14:50:25;210.00;;;198.07;;
11039;SDS011;5573;49.592;8.662;2022-11-20T14:52:56;217.77;;;205.73;;
11039;SDS011;5573;49.592;8.662;2022-11-20T14:55:25;212.53;;;200.23;;
11039;SDS011;5573;49.592;8.662;2022-11-20T14:57:58;216.13;;;203.60;;
11039;SDS011;5573;49.592;8.662;2022-11-20T15:00:27;195.43;;;184.27;;
11039;SDS011;5573;49.592;8.662;2022-11-20T15:02:56;198.77;;;187.30;;
11039;SDS011;5573;49.592;8.662;2022-11-20T15:05:25;200.70;;;189.47;;
11039;SDS011;5573;49.592;8.662;2022-11-20T15:08:12;174.53;;;164.80;;
11039;SDS011;5573;49.592;8.662;2022-11-20T15:10:45;173.83;;;164.00;;
11039;SDS011;5573;49.592;8.662;2022-11-20T15:13:14;185.80;;;175.20;;
11039;SDS011;5573;49.592;8.662;2022-11-20T15:15:46;174.17;;;164.20;;
11039;SDS011;5573;49.592;8.662;2022-11-20T15:18:17;172.07;;;162.30;;
11039;SDS011;5573;49.592;8.662;2022-11-20T15:20:46;162.03;;;152.73;;
11039;SDS011;5573;49.592;8.662;2022-11-20T15:23:17;174.07;;;164.07;;
11039;SDS011;5573;49.592;8.662;2022-11-20T15:25:46;164.47;;;154.97;;